Time;durP1;ratioP1;P1;durP2;ratioP2;P2;SDS_P1;SDS_P2;PMS_P1;PMS_P2;Temp;Humidity;BMP_temperature;BMP_pressure;BME280_temperature;BME280_humidity;BME280_pressure;Samples;Min_cycle;Max_cycle;Signal;HPM_P1;HPM_P2
2022/01/22 00:00:47;;;;;;;0.50;0.30;;;-0.60;99.90;;;;;;5089599;28;20197;-87
2022/01/22 00:03:14;;;;;;;0.30;0.10;;;-0.70;99.90;;;;;;5090546;28;20217;-88
2022/01/22 00:05:42;;;;;;;0.30;0.10;;;-0.70;99.90;;;;;;5090383;28;20224;-88
2022/01/22 00:08:09;;;;;;;0.43;0.20;;;-0.60;99.90;;;;;;5090602;28;20284;-88
2022/01/22 00:10:41;;;;;;;0.30;0.10;;;-0.70;99.90;;;;;;5087624;28;20189;-88
2022/01/22 00:14:23;;;;;;;0.30;0.10;;;-0.70;99.90;;;;;;5089357;28;20846;-88
2022/01/22 00:15:56;;;;;;;0.30;0.20;;;-0.70;99.90;;;;;;5086941;28;20201;-87
2022/01/22 00:18:24;;;;;;;0.30;0.10;;;-0.70;99.90;;;;;;5089393;28;20201;-89
2022/01/22 00:20:51;;;;;;;0.30;0.10;;;-0.70;99.90;;;;;;5088434;28;20588;-89
2022/01/22 00:23:20;;;;;;;0.30;0.10;;;-0.70;99.90;;;;;;5092756;28;20271;-89
2022/01/22 00:25:48;;;;;;;0.30;0.10;;;-0.70;99.90;;;;;;5089447;28;20284;-88
2022/01/22 00:28:15;;;;;;;0.30;0.10;;;-0.70;99.90;;;;;;5092843;28;20201;-88
2022/01/22 00:30:42;;;;;;;0.30;0.10;;;-0.70;99.90;;;;;;5089741;28;20643;-88
2022/01/22 00:33:09;;;;;;;0.30;0.10;;;-0.70;99.90;;;;;;5090667;28;20261;-88
2022/01/22 00:35:37;;;;;;;0.30;0.10;;;-0.70;99.90;;;;;;5093078;28;20702;-88
2022/01/22 00:38:04;;;;;;;0.30;0.10;;;-0.60;99.90;;;;;;5092729;28;20251;-87
2022/01/22 00:40:31;;;;;;;0.30;0.10;;;-0.60;99.90;;;;;;5092950;28;20193;-88
2022/01/22 00:42:59;;;;;;;0.30;0.10;;;-0.60;99.90;;;;;;5086888;28;20439;-88
2022/01/22 00:45:26;;;;;;;0.30;0.10;;;-0.60;99.90;;;;;;5092633;28;20631;-88
2022/01/22 00:47:53;;;;;;;0.30;0.20;;;-0.60;99.90;;;;;;5092577;28;20384;-87
2022/01/22 00:50:23;;;;;;;0.30;0.10;;;-0.60;99.90;;;;;;5088273;28;20213;-90
2022/01/22 00:52:50;;;;;;;0.30;0.10;;;-0.60;99.90;;;;;;5092025;28;20198;-87
2022/01/22 00:55:18;;;;;;;0.30;0.20;;;-0.60;99.90;;;;;;5092997;28;20204;-87
2022/01/22 00:57:46;;;;;;;0.30;0.10;;;-0.60;99.90;;;;;;5092646;28;20240;-88
2022/01/22 01:00:17;;;;;;;0.30;0.10;;;-0.60;99.90;;;;;;5090769;28;20253;-87
2022/01/22 01:02:44;;;;;;;0.30;0.10;;;-0.60;99.90;;;;;;5091898;28;20229;-88
2022/01/22 01:05:13;;;;;;;0.30;0.20;;;-0.60;99.90;;;;;;5091994;28;20270;-88
2022/01/22 01:07:40;;;;;;;0.30;0.10;;;-0.60;99.90;;;;;;5092067;28;20201;-87
2022/01/22 01:10:12;;;;;;;0.30;0.10;;;-0.60;99.90;;;;;;5091309;28;20255;-87
2022/01/22 01:12:40;;;;;;;0.30;0.10;;;-0.60;99.90;;;;;;5092207;28;20197;-90
2022/01/22 01:15:18;;;;;;;0.30;0.10;;;-0.60;99.90;;;;;;5089788;28;20771;-89
2022/01/22 01:18:05;;;;;;;0.30;0.10;;;-0.60;99.90;;;;;;5088730;28;20676;-88
2022/01/22 01:34:18;;;;;;;0.30;0.10;;;-0.60;99.90;;;;;;5091671;28;20333;-88
2022/01/22 01:36:47;;;;;;;0.30;0.10;;;-0.60;99.90;;;;;;5093243;28;20201;-88
2022/01/22 01:39:18;;;;;;;0.30;0.10;;;-0.60;99.90;;;;;;5093046;28;20601;-88
2022/01/22 01:41:53;;;;;;;0.30;0.10;;;-0.60;99.90;;;;;;5093294;28;20196;-87
2022/01/22 01:44:20;;;;;;;0.30;0.10;;;-0.60;99.90;;;;;;5092500;28;20220;-88
2022/01/22 01:46:49;;;;;;;0.30;0.10;;;-0.60;99.90;;;;;;5091652;28;20193;-88
2022/01/22 01:49:17;;;;;;;0.30;0.10;;;-0.70;99.90;;;;;;5091538;28;20256;-88
2022/01/22 01:51:45;;;;;;;0.82;0.82;;;-0.70;99.90;;;;;;5091955;28;20307;-88
2022/01/22 01:54:23;;;;;;;0.30;0.10;;;-0.70;99.90;;;;;;5091427;28;20202;-89
2022/01/22 01:59:35;;;;;;;0.30;0.10;;;-0.70;99.90;;;;;;5086290;28;20320;-88
2022/01/22 02:02:02;;;;;;;0.30;0.10;;;-0.70;99.90;;;;;;5091111;28;20286;-89
2022/01/22 02:04:30;;;;;;;0.30;0.10;;;-0.70;99.90;;;;;;5089993;28;20220;-88
2022/01/22 02:06:58;;;;;;;0.82;0.82;;;-0.70;99.90;;;;;;5090530;28;20536;-88
2022/01/22 02:09:25;;;;;;;0.30;0.10;;;-0.70;99.90;;;;;;5091649;28;20194;-88
2022/01/22 02:12:00;;;;;;;0.30;0.10;;;-0.70;99.90;;;;;;5088773;28;20252;-88
2022/01/22 02:25:32;;;;;;;0.30;0.10;;;-0.80;99.90;;;;;;5089474;28;20200;-89
2022/01/22 02:28:01;;;;;;;0.30;0.20;;;-0.70;99.90;;;;;;5090448;28;20749;-89
2022/01/22 02:30:31;;;;;;;0.30;0.10;;;-0.80;99.90;;;;;;5090964;28;20201;-89
2022/01/22 02:33:13;;;;;;;0.30;0.10;;;-0.80;99.90;;;;;;5084482;28;20212;-90
2022/01/22 02:35:47;;;;;;;0.30;0.10;;;-0.80;99.90;;;;;;5089873;28;20193;-90
2022/01/22 02:38:20;;;;;;;0.30;0.10;;;-0.80;99.90;;;;;;5088772;28;20192;-89
2022/01/22 02:40:49;;;;;;;0.30;0.10;;;-0.80;99.90;;;;;;5090303;28;20209;-90
2022/01/22 02:43:18;;;;;;;0.30;0.10;;;-0.80;99.90;;;;;;5090489;28;20304;-90
2022/01/22 02:45:47;;;;;;;0.30;0.10;;;-0.80;99.90;;;;;;5088697;28;20242;-89
2022/01/22 02:48:15;;;;;;;0.30;0.10;;;-0.80;99.90;;;;;;5088271;28;20546;-90
2022/01/22 02:50:42;;;;;;;0.30;0.10;;;-0.80;99.90;;;;;;5091455;28;20212;-88
2022/01/22 02:53:11;;;;;;;0.30;0.10;;;-0.80;99.90;;;;;;5091463;28;20208;-89
2022/01/22 02:55:41;;;;;;;0.30;0.10;;;-0.80;99.90;;;;;;5103828;28;20212;-90
2022/01/22 02:58:09;;;;;;;0.30;0.10;;;-0.80;99.90;;;;;;5111972;28;20259;-89
2022/01/22 03:00:36;;;;;;;0.30;0.10;;;-0.80;99.90;;;;;;5115755;28;20227;-88
2022/01/22 03:03:04;;;;;;;0.30;0.10;;;-0.90;99.90;;;;;;5108147;28;20343;-89
2022/01/22 03:05:31;;;;;;;0.30;0.10;;;-0.80;99.90;;;;;;5106171;28;20206;-89
2022/01/22 03:08:01;;;;;;;0.30;0.10;;;-0.80;99.90;;;;;;5095514;28;20205;-91
2022/01/22 03:10:29;;;;;;;0.30;0.10;;;-0.90;99.90;;;;;;5104591;28;20260;-88
2022/01/22 03:13:21;;;;;;;0.30;0.10;;;-0.80;99.90;;;;;;5106599;28;20210;-88
2022/01/22 03:15:58;;;;;;;0.30;0.10;;;-0.90;99.90;;;;;;5113438;28;20250;-90
2022/01/22 03:18:39;;;;;;;0.30;0.10;;;-0.80;99.90;;;;;;5113227;28;20193;-87
2022/01/22 03:21:13;;;;;;;0.25;0.17;;;-0.80;99.90;;;;;;5112051;28;20207;-88
2022/01/22 03:29:32;;;;;;;0.30;0.10;;;-0.80;99.90;;;;;;5030194;28;20204;-89
2022/01/22 03:32:00;;;;;;;0.30;0.20;;;-0.80;99.90;;;;;;5084186;28;20579;-89
2022/01/22 03:34:28;;;;;;;0.20;0.10;;;-0.80;99.90;;;;;;5097466;28;20188;-90
2022/01/22 03:36:56;;;;;;;0.30;0.10;;;-0.80;99.90;;;;;;5095678;28;20208;-89
2022/01/22 03:39:23;;;;;;;0.30;0.10;;;-0.80;99.90;;;;;;5086474;28;20754;-90
2022/01/22 03:41:52;;;;;;;0.30;0.10;;;-0.80;99.90;;;;;;5092098;28;20194;-89
2022/01/22 03:44:19;;;;;;;0.30;0.10;;;-0.70;99.90;;;;;;5089847;28;20227;-90
2022/01/22 03:46:48;;;;;;;0.30;0.20;;;-0.70;99.90;;;;;;5087219;28;20284;-89
2022/01/22 03:49:16;;;;;;;0.30;0.10;;;-0.70;99.90;;;;;;5088429;28;20259;-92
2022/01/22 03:51:44;;;;;;;0.30;0.10;;;-0.70;99.90;;;;;;5089351;28;20677;-91
2022/01/22 03:54:12;;;;;;;0.25;0.10;;;-0.70;99.90;;;;;;5088868;28;20201;-88
2022/01/22 03:56:43;;;;;;;0.30;0.10;;;-0.60;99.90;;;;;;5086876;28;20287;-89
2022/01/22 03:59:10;;;;;;;0.25;0.10;;;-0.60;99.90;;;;;;5086705;28;20288;-88
2022/01/22 04:04:40;;;;;;;0.30;0.10;;;-0.60;99.90;;;;;;5090004;28;20193;-90
2022/01/22 04:10:04;;;;;;;0.30;0.10;;;-0.50;99.90;;;;;;5085737;28;20665;-89
2022/01/22 04:12:35;;;;;;;0.30;0.10;;;-0.50;99.90;;;;;;5087635;28;20331;-89
2022/01/22 04:15:04;;;;;;;0.30;0.10;;;-0.50;99.90;;;;;;5089316;28;20194;-88
2022/01/22 04:24:49;;;;;;;0.30;0.10;;;-0.40;99.90;;;;;;5086505;28;20775;-89
2022/01/22 04:26:04;;;;;;;0.30;0.10;;;-0.40;99.90;;;;;;5085417;28;20894;-90
2022/01/22 04:28:31;;;;;;;0.30;0.10;;;-0.30;99.90;;;;;;5087796;28;20193;-91
2022/01/22 04:30:58;;;;;;;0.30;0.10;;;-0.30;99.90;;;;;;5088923;28;20201;-90
2022/01/22 04:33:25;;;;;;;0.30;0.10;;;-0.30;99.90;;;;;;5089435;28;20259;-89
2022/01/22 04:35:53;;;;;;;0.30;0.10;;;-0.30;99.90;;;;;;5110695;28;20194;-89
2022/01/22 04:38:20;;;;;;;0.30;0.10;;;-0.30;99.90;;;;;;5108417;28;20193;-89
2022/01/22 04:40:47;;;;;;;0.30;0.15;;;-0.20;99.90;;;;;;5103710;28;20227;-91
2022/01/22 04:43:15;;;;;;;0.30;0.10;;;-0.30;99.90;;;;;;5097519;28;20274;-88
2022/01/22 04:45:53;;;;;;;0.30;0.10;;;-0.30;99.90;;;;;;5090563;28;20561;-89
2022/01/22 04:48:42;;;;;;;0.30;0.10;;;-0.20;99.90;;;;;;5087696;28;20205;-88
2022/01/22 04:56:39;;;;;;;0.30;0.10;;;-0.20;99.90;;;;;;5087407;28;20208;-87
2022/01/22 04:59:06;;;;;;;0.30;0.10;;;-0.20;99.90;;;;;;5088621;28;20230;-88
2022/01/22 05:01:33;;;;;;;0.30;0.10;;;-0.20;99.90;;;;;;5085342;28;20250;-87
2022/01/22 05:04:00;;;;;;;0.30;0.10;;;-0.20;99.90;;;;;;5087109;28;20290;-88
2022/01/22 05:06:30;;;;;;;0.30;0.10;;;-0.20;99.90;;;;;;5088981;28;20197;-88
2022/01/22 05:08:57;;;;;;;0.30;0.10;;;-0.20;99.90;;;;;;5090988;28;20201;-88
2022/01/22 05:11:24;;;;;;;0.30;0.10;;;-0.10;99.90;;;;;;5092572;28;20204;-88
2022/01/22 05:13:51;;;;;;;0.30;0.10;;;-0.20;99.90;;;;;;5089520;28;20215;-88
2022/01/22 05:16:19;;;;;;;0.30;0.10;;;-0.10;99.90;;;;;;5093046;28;20188;-88
2022/01/22 05:18:52;;;;;;;0.30;0.10;;;-0.10;99.90;;;;;;5092390;28;20590;-88
2022/01/22 05:21:20;;;;;;;0.30;0.10;;;-0.10;99.90;;;;;;5089864;28;20608;-88
2022/01/22 05:23:50;;;;;;;0.30;0.10;;;-0.10;99.90;;;;;;5092724;28;20679;-87
2022/01/22 05:26:43;;;;;;;0.30;0.10;;;-0.10;99.90;;;;;;5092675;28;20220;-91
2022/01/22 05:32:26;;;;;;;0.30;0.10;;;-0.10;99.90;;;;;;5070169;28;20193;-89
2022/01/22 05:37:37;;;;;;;0.30;0.10;;;-0.10;99.90;;;;;;5090781;28;20687;-87
2022/01/22 05:40:07;;;;;;;0.30;0.10;;;-0.10;99.90;;;;;;5091221;28;20196;-87
2022/01/22 05:42:35;;;;;;;0.30;0.10;;;-0.10;99.90;;;;;;5090046;28;20250;-90
2022/01/22 05:45:03;;;;;;;0.30;0.10;;;0.00;99.90;;;;;;5086828;28;20199;-87
2022/01/22 05:47:30;;;;;;;0.30;0.10;;;0.00;99.90;;;;;;5083457;28;20250;-87
2022/01/22 05:49:57;;;;;;;0.30;0.10;;;0.00;99.90;;;;;;5090585;28;20324;-87
2022/01/22 05:52:31;;;;;;;0.30;0.10;;;0.00;99.90;;;;;;5089838;28;20197;-89
2022/01/22 05:55:24;;;;;;;0.30;0.10;;;0.00;99.90;;;;;;5089537;28;20221;-87
2022/01/22 06:00:37;;;;;;;0.30;0.10;;;0.00;99.90;;;;;;5091509;28;20554;-87
2022/01/22 06:03:03;;;;;;;0.30;0.10;;;0.00;99.90;;;;;;5091432;28;20623;-91
2022/01/22 06:05:30;;;;;;;1.20;1.10;;;0.00;99.90;;;;;;5091302;28;20587;-87
2022/01/22 06:07:57;;;;;;;0.30;0.10;;;0.00;99.90;;;;;;5093371;28;20197;-87
2022/01/22 06:10:28;;;;;;;0.30;0.10;;;0.10;99.90;;;;;;5113364;28;20198;-87
2022/01/22 06:13:11;;;;;;;0.30;0.10;;;0.10;99.90;;;;;;5106875;28;20193;-86
2022/01/22 06:15:38;;;;;;;0.30;0.10;;;0.10;99.90;;;;;;5094350;28;20205;-87
2022/01/22 06:18:06;;;;;;;0.30;0.10;;;0.10;99.90;;;;;;5096113;28;20224;-88
2022/01/22 06:20:33;;;;;;;0.30;0.10;;;0.10;99.90;;;;;;5091969;28;20197;-89
2022/01/22 06:23:00;;;;;;;0.30;0.10;;;0.10;99.90;;;;;;5088249;28;20259;-87
2022/01/22 06:25:27;;;;;;;0.30;0.10;;;0.10;99.90;;;;;;5089166;28;20202;-87
2022/01/22 06:27:56;;;;;;;0.30;0.10;;;0.10;99.90;;;;;;5090675;28;20205;-87
2022/01/22 06:30:23;;;;;;;0.30;0.10;;;0.10;99.90;;;;;;5091067;28;20225;-86
2022/01/22 06:32:50;;;;;;;0.30;0.10;;;0.10;99.90;;;;;;5091737;28;20207;-86
2022/01/22 06:35:17;;;;;;;0.30;0.10;;;0.10;99.90;;;;;;5090447;28;20193;-89
2022/01/22 06:37:44;;;;;;;0.30;0.10;;;0.10;99.90;;;;;;5090543;28;20198;-87
2022/01/22 06:42:57;;;;;;;0.30;0.10;;;0.10;99.90;;;;;;5090959;28;20190;-86
2022/01/22 06:45:24;;;;;;;0.30;0.10;;;0.10;99.90;;;;;;5089832;28;20682;-86
2022/01/22 06:47:51;;;;;;;0.30;0.10;;;0.10;99.90;;;;;;5091468;28;20203;-85
2022/01/22 06:50:19;;;;;;;0.30;0.10;;;0.10;99.90;;;;;;5090388;28;20652;-85
2022/01/22 06:52:46;;;;;;;0.30;0.10;;;0.10;99.90;;;;;;5091356;28;20210;-85
2022/01/22 06:55:17;;;;;;;0.30;0.10;;;0.10;99.90;;;;;;5071068;28;20210;-85
2022/01/22 06:57:44;;;;;;;0.30;0.10;;;0.20;99.90;;;;;;5070186;28;20238;-85
2022/01/22 07:00:13;;;;;;;0.30;0.10;;;0.10;99.90;;;;;;5074518;28;20633;-85
2022/01/22 07:02:40;;;;;;;0.30;0.10;;;0.10;99.90;;;;;;5081650;28;20193;-84
2022/01/22 07:05:07;;;;;;;0.30;0.10;;;0.20;99.90;;;;;;5073870;28;20556;-88
2022/01/22 07:07:36;;;;;;;0.30;0.10;;;0.20;99.90;;;;;;5089826;28;20194;-91
2022/01/22 07:10:04;;;;;;;0.30;0.10;;;0.20;99.90;;;;;;5082742;28;20609;-86
2022/01/22 07:12:31;;;;;;;0.30;0.10;;;0.20;99.90;;;;;;5087035;28;20670;-85
2022/01/22 07:14:58;;;;;;;0.30;0.10;;;0.20;99.90;;;;;;5089100;28;20659;-87
2022/01/22 07:17:29;;;;;;;0.30;0.10;;;0.30;99.90;;;;;;5087288;28;20271;-86
2022/01/22 07:19:55;;;;;;;0.30;0.10;;;0.30;99.90;;;;;;5070108;28;20206;-87
2022/01/22 07:22:37;;;;;;;0.30;0.10;;;0.30;99.90;;;;;;5071028;28;20254;-87
2022/01/22 07:25:05;;;;;;;0.45;0.45;;;0.30;99.90;;;;;;5069855;28;20638;-87
2022/01/22 07:27:32;;;;;;;0.30;0.10;;;0.30;99.90;;;;;;5084357;28;20250;-86
2022/01/22 07:29:59;;;;;;;0.30;0.10;;;0.30;99.90;;;;;;5090574;28;20194;-87
2022/01/22 07:32:35;;;;;;;0.30;0.10;;;0.30;99.90;;;;;;5083571;28;20583;-86
2022/01/22 07:35:03;;;;;;;0.30;0.10;;;0.30;99.90;;;;;;5081478;28;20210;-87
2022/01/22 07:37:30;;;;;;;0.30;0.10;;;0.30;99.90;;;;;;5071657;28;20206;-86
2022/01/22 07:39:57;;;;;;;0.30;0.10;;;0.30;99.90;;;;;;5075257;28;20728;-86
2022/01/22 07:42:24;;;;;;;0.30;0.10;;;0.30;99.90;;;;;;5079300;28;20535;-86
2022/01/22 07:44:51;;;;;;;0.30;0.10;;;0.30;99.90;;;;;;5085215;28;20230;-86
2022/01/22 07:47:18;;;;;;;0.30;0.10;;;0.30;99.90;;;;;;5110801;28;20196;-87
2022/01/22 07:49:46;;;;;;;0.30;0.10;;;0.30;99.90;;;;;;5105890;28;20196;-86
2022/01/22 07:52:13;;;;;;;0.30;0.10;;;0.30;99.90;;;;;;5101601;28;20193;-86
2022/01/22 07:54:40;;;;;;;0.30;0.10;;;0.30;99.90;;;;;;5081931;28;20253;-86
2022/01/22 07:57:07;;;;;;;0.30;0.20;;;0.30;99.90;;;;;;5071507;28;20562;-86
2022/01/22 07:59:34;;;;;;;0.30;0.10;;;0.40;99.90;;;;;;5078213;28;20235;-87
2022/01/22 08:02:03;;;;;;;0.30;0.10;;;0.30;99.90;;;;;;5083397;28;20615;-87
2022/01/22 08:04:30;;;;;;;0.63;0.63;;;0.40;99.90;;;;;;5082313;28;22189;-87
2022/01/22 08:07:03;;;;;;;0.30;0.10;;;0.40;99.90;;;;;;5084804;28;21036;-87
2022/01/22 08:09:30;;;;;;;0.30;0.10;;;0.50;99.90;;;;;;5077951;28;20237;-87
2022/01/22 08:11:57;;;;;;;0.30;0.20;;;0.40;99.90;;;;;;5077308;28;20650;-86
2022/01/22 08:14:24;;;;;;;0.30;0.10;;;0.40;99.90;;;;;;5075582;28;20650;-87
2022/01/22 08:16:51;;;;;;;0.30;0.10;;;0.50;99.90;;;;;;5084966;28;20246;-86
2022/01/22 08:19:18;;;;;;;0.30;0.10;;;0.40;99.90;;;;;;5080305;28;20198;-86
2022/01/22 08:21:47;;;;;;;0.30;0.10;;;0.40;99.90;;;;;;5089675;28;20261;-86
2022/01/22 08:24:16;;;;;;;0.30;0.10;;;0.50;99.90;;;;;;5085139;28;20214;-88
2022/01/22 08:26:47;;;;;;;0.30;0.10;;;0.40;99.90;;;;;;5085475;28;20272;-86
2022/01/22 08:29:14;;;;;;;0.30;0.10;;;0.50;99.90;;;;;;5085372;28;20209;-87
2022/01/22 08:31:52;;;;;;;0.30;0.10;;;0.50;99.90;;;;;;5087080;28;20248;-87
2022/01/22 08:37:04;;;;;;;0.30;0.10;;;0.60;99.90;;;;;;5080347;28;20225;-88
2022/01/22 08:39:32;;;;;;;0.30;0.10;;;0.60;99.90;;;;;;5088936;28;20714;-87
2022/01/22 08:42:00;;;;;;;0.30;0.10;;;0.60;99.90;;;;;;5087570;28;20547;-87
2022/01/22 08:44:27;;;;;;;0.30;0.10;;;0.70;99.90;;;;;;5080928;28;20876;-88
2022/01/22 08:46:54;;;;;;;0.30;0.10;;;0.70;99.90;;;;;;5085872;28;20199;-87
2022/01/22 08:49:21;;;;;;;0.30;0.10;;;0.80;99.90;;;;;;5093127;28;20907;-87
2022/01/22 08:51:48;;;;;;;0.30;0.10;;;0.80;99.90;;;;;;5082448;28;20200;-89
2022/01/22 08:54:15;;;;;;;0.30;0.10;;;0.70;99.90;;;;;;5085495;28;20211;-88
2022/01/22 08:56:44;;;;;;;0.30;0.10;;;0.80;99.90;;;;;;5075638;28;20198;-89
2022/01/22 08:59:12;;;;;;;0.40;0.40;;;0.80;99.90;;;;;;5059854;28;20599;-87
2022/01/22 09:01:40;;;;;;;0.30;0.20;;;0.90;99.90;;;;;;5072283;28;20192;-88
2022/01/22 09:04:07;;;;;;;0.30;0.10;;;0.90;99.90;;;;;;5066343;28;20227;-89
2022/01/22 09:06:35;;;;;;;0.55;0.55;;;0.90;99.90;;;;;;5064840;28;20196;-88
2022/01/22 09:09:09;;;;;;;0.30;0.10;;;0.90;99.90;;;;;;5061959;28;20655;-89
2022/01/22 09:11:37;;;;;;;0.30;0.10;;;1.00;99.90;;;;;;5068864;28;20667;-88
2022/01/22 09:14:07;;;;;;;0.30;0.10;;;0.90;99.90;;;;;;5064362;28;20670;-89
2022/01/22 09:16:35;;;;;;;1.35;0.30;;;0.90;99.90;;;;;;5063901;28;20196;-89
2022/01/22 09:19:06;;;;;;;0.30;0.10;;;0.90;99.90;;;;;;5073282;28;20219;-88
2022/01/22 09:21:34;;;;;;;0.30;0.10;;;1.00;99.90;;;;;;5077144;28;20194;-89
2022/01/22 09:24:01;;;;;;;0.30;0.10;;;1.00;99.90;;;;;;5082571;28;20655;-89
2022/01/22 09:26:29;;;;;;;0.30;0.10;;;1.10;99.90;;;;;;5057199;28;20205;-89
2022/01/22 09:28:58;;;;;;;0.30;0.10;;;1.10;99.90;;;;;;5071941;28;20202;-87
2022/01/22 09:31:27;;;;;;;0.30;0.10;;;1.20;99.90;;;;;;5069862;28;20204;-88
2022/01/22 09:33:56;;;;;;;0.30;0.10;;;1.20;99.90;;;;;;5066055;28;20256;-88
2022/01/22 09:36:24;;;;;;;0.30;0.10;;;1.20;99.90;;;;;;5068647;28;20227;-88
2022/01/22 09:38:53;;;;;;;0.30;0.10;;;1.20;99.90;;;;;;5061469;28;20201;-90
2022/01/22 09:41:21;;;;;;;0.30;0.10;;;1.20;99.90;;;;;;5069677;28;20207;-86
2022/01/22 09:43:48;;;;;;;0.30;0.10;;;1.30;99.90;;;;;;5066798;28;20207;-88
2022/01/22 09:46:16;;;;;;;0.70;0.30;;;1.30;99.90;;;;;;5068909;28;20196;-89
2022/01/22 09:48:46;;;;;;;0.30;0.10;;;1.30;99.90;;;;;;5068351;28;20214;-91
2022/01/22 09:51:15;;;;;;;0.30;0.10;;;1.40;99.90;;;;;;5075220;28;20250;-92
2022/01/22 09:53:43;;;;;;;0.30;0.20;;;1.50;99.90;;;;;;5071625;28;20222;-92
2022/01/22 09:56:11;;;;;;;0.30;0.20;;;1.30;99.90;;;;;;5072958;28;20929;-91
2022/01/22 09:58:38;;;;;;;0.30;0.10;;;1.30;99.90;;;;;;5088249;28;20628;-92
2022/01/22 10:01:23;;;;;;;0.40;0.30;;;1.30;99.90;;;;;;5091099;28;20207;-90
2022/01/22 10:03:53;;;;;;;0.68;0.68;;;1.30;99.90;;;;;;5084789;28;20215;-90
2022/01/22 10:06:23;;;;;;;0.30;0.10;;;1.40;99.90;;;;;;5090515;28;20220;-92
2022/01/22 10:08:54;;;;;;;0.30;0.10;;;1.40;99.90;;;;;;5090412;28;20980;-86
2022/01/22 10:11:23;;;;;;;0.30;0.10;;;1.40;99.90;;;;;;5091015;28;20761;-90
2022/01/22 10:13:52;;;;;;;0.30;0.10;;;1.50;99.90;;;;;;5071648;28;20277;-91
2022/01/22 10:16:22;;;;;;;0.30;0.10;;;1.50;99.90;;;;;;5071614;28;20235;-91
2022/01/22 10:19:10;;;;;;;0.40;0.40;;;1.40;99.90;;;;;;5072969;28;20520;-91
2022/01/22 10:21:38;;;;;;;0.30;0.10;;;1.50;99.90;;;;;;5070866;28;20438;-91
2022/01/22 10:24:26;;;;;;;0.30;0.10;;;1.60;99.90;;;;;;5070341;28;20203;-90
2022/01/22 10:27:20;;;;;;;0.30;0.10;;;1.60;99.90;;;;;;5070240;28;20212;-91
2022/01/22 10:29:51;;;;;;;0.30;0.10;;;1.50;99.90;;;;;;5084400;28;20673;-93
2022/01/22 10:32:20;;;;;;;0.30;0.10;;;1.60;99.90;;;;;;5091235;28;20758;-92
2022/01/22 10:34:49;;;;;;;0.30;0.20;;;1.50;99.90;;;;;;5090819;28;20200;-92
2022/01/22 10:37:28;;;;;;;0.30;0.10;;;1.50;99.90;;;;;;5082188;28;20874;-94
2022/01/22 10:40:17;;;;;;;0.30;0.10;;;1.60;99.90;;;;;;5087967;28;20257;-92
2022/01/22 10:42:44;;;;;;;0.30;0.10;;;1.60;99.90;;;;;;5088706;28;20203;-91
2022/01/22 10:45:19;;;;;;;0.30;0.17;;;1.70;99.90;;;;;;5085994;28;20272;-91
2022/01/22 10:47:46;;;;;;;0.30;0.10;;;1.60;99.90;;;;;;5091609;28;20199;-91
2022/01/22 10:50:25;;;;;;;0.67;0.67;;;1.60;99.90;;;;;;5089175;28;20449;-93
2022/01/22 10:52:55;;;;;;;0.30;0.10;;;1.60;99.90;;;;;;5088612;28;20987;-91
2022/01/22 10:55:22;;;;;;;0.30;0.10;;;1.60;99.90;;;;;;5096413;28;20514;-93
2022/01/22 10:58:09;;;;;;;0.30;0.20;;;1.60;99.90;;;;;;5112728;28;20230;-91
2022/01/22 11:00:37;;;;;;;0.30;0.10;;;1.60;99.90;;;;;;5116745;28;20187;-91
2022/01/22 11:03:19;;;;;;;0.30;0.10;;;1.60;99.90;;;;;;5112523;28;20194;-91
2022/01/22 11:05:48;;;;;;;0.30;0.10;;;1.50;99.90;;;;;;5095599;28;20593;-91
2022/01/22 11:08:16;;;;;;;0.30;0.10;;;1.50;99.90;;;;;;5086319;28;20209;-92
2022/01/22 11:10:45;;;;;;;0.30;0.10;;;1.50;99.90;;;;;;5079992;28;20680;-92
2022/01/22 11:13:12;;;;;;;0.30;0.10;;;1.50;99.90;;;;;;5083207;28;20207;-93
2022/01/22 11:15:41;;;;;;;0.30;0.10;;;1.50;99.90;;;;;;5084531;28;20249;-90
2022/01/22 11:18:11;;;;;;;2.60;1.90;;;1.50;99.90;;;;;;5086169;28;20969;-91
2022/01/22 11:20:40;;;;;;;0.30;0.10;;;1.50;99.90;;;;;;5090390;28;20450;-91
2022/01/22 11:23:10;;;;;;;0.30;0.10;;;1.50;99.90;;;;;;5089177;28;20501;-92
2022/01/22 11:25:38;;;;;;;0.30;0.10;;;1.50;99.90;;;;;;5090970;28;20211;-93
2022/01/22 11:28:06;;;;;;;0.30;0.10;;;1.40;99.90;;;;;;5083308;28;20203;-95
2022/01/22 11:30:36;;;;;;;0.30;0.10;;;1.40;99.90;;;;;;5088895;28;20204;-94
2022/01/22 11:33:06;;;;;;;0.30;0.10;;;1.40;99.90;;;;;;5076846;28;20211;-93
2022/01/22 11:35:43;;;;;;;0.30;0.10;;;1.50;99.90;;;;;;5084238;28;20200;-94
2022/01/22 11:38:18;;;;;;;0.30;0.10;;;1.50;99.90;;;;;;5071488;28;20200;-92
2022/01/22 11:41:03;;;;;;;0.30;0.10;;;1.60;99.90;;;;;;5082004;28;20585;-90
2022/01/22 11:43:59;;;;;;;0.30;0.10;;;1.70;99.90;;;;;;5077076;28;20732;-92
2022/01/22 11:46:27;;;;;;;0.30;0.10;;;2.00;99.90;;;;;;5080874;28;20482;-90
2022/01/22 11:49:11;;;;;;;0.30;0.10;;;2.00;99.90;;;;;;5089407;28;20495;-93
2022/01/22 11:51:39;;;;;;;0.30;0.10;;;2.00;99.90;;;;;;5088419;28;21769;-93
2022/01/22 11:54:08;;;;;;;0.30;0.10;;;1.90;99.90;;;;;;5084891;28;20469;-92
2022/01/22 11:56:47;;;;;;;0.40;0.33;;;2.00;99.90;;;;;;5090214;28;20446;-93
2022/01/22 11:59:30;;;;;;;0.30;0.10;;;1.90;99.90;;;;;;5085787;28;20460;-91
2022/01/22 12:02:07;;;;;;;0.30;0.10;;;2.00;99.90;;;;;;5089773;28;20215;-93
2022/01/22 12:05:04;;;;;;;0.30;0.20;;;2.00;99.90;;;;;;5084929;28;20504;-93
2022/01/22 12:07:36;;;;;;;0.30;0.10;;;1.90;99.90;;;;;;5071673;28;20451;-92
2022/01/22 12:10:32;;;;;;;0.30;0.20;;;2.00;99.90;;;;;;5084882;28;20825;-92
2022/01/22 12:16:11;;;;;;;0.30;0.10;;;2.00;99.90;;;;;;5075793;28;20460;-91
2022/01/22 12:18:43;;;;;;;0.30;0.10;;;2.00;99.90;;;;;;5090496;28;20501;-92
2022/01/22 12:21:33;;;;;;;0.30;0.10;;;2.10;99.90;;;;;;5090615;28;20279;-92
2022/01/22 12:24:02;;;;;;;0.30;0.10;;;2.20;99.90;;;;;;5086229;28;20195;-93
2022/01/22 12:26:59;;;;;;;0.30;0.10;;;2.40;99.90;;;;;;5091109;28;20226;-94
2022/01/22 12:29:41;;;;;;;0.30;0.10;;;2.70;99.90;;;;;;5095760;28;20464;-92
2022/01/22 12:32:23;;;;;;;0.30;0.10;;;2.90;99.90;;;;;;5110164;28;20461;-92
2022/01/22 12:34:59;;;;;;;0.40;0.30;;;2.80;99.90;;;;;;5108235;28;20457;-89
2022/01/22 12:37:29;;;;;;;0.52;0.40;;;2.60;99.90;;;;;;5108297;28;20258;-90
2022/01/22 12:39:57;;;;;;;0.30;0.10;;;2.50;99.90;;;;;;5090164;28;20218;-91
2022/01/22 12:42:51;;;;;;;0.30;0.20;;;2.40;99.90;;;;;;5087582;28;20204;-94
2022/01/22 12:45:20;;;;;;;0.30;0.10;;;2.40;99.90;;;;;;5094980;28;20281;-93
2022/01/22 12:47:48;;;;;;;0.30;0.10;;;2.50;99.90;;;;;;5090029;28;20546;-90
2022/01/22 12:50:16;;;;;;;0.30;0.10;;;2.50;99.90;;;;;;5090061;28;20506;-90
2022/01/22 12:52:47;;;;;;;0.30;0.10;;;2.40;99.90;;;;;;5087139;28;20253;-91
2022/01/22 12:55:18;;;;;;;0.30;0.10;;;2.30;99.90;;;;;;5090130;28;20465;-87
2022/01/22 12:57:47;;;;;;;0.30;0.20;;;2.10;99.90;;;;;;5086265;28;20260;-90
2022/01/22 13:00:17;;;;;;;0.30;0.10;;;2.20;99.90;;;;;;5088865;28;20272;-90
2022/01/22 13:02:45;;;;;;;0.30;0.10;;;2.10;99.90;;;;;;5090117;28;20628;-92
2022/01/22 13:05:14;;;;;;;0.30;0.10;;;2.00;99.90;;;;;;5087651;28;20281;-91
2022/01/22 13:07:42;;;;;;;0.30;0.10;;;1.90;99.90;;;;;;5094602;28;20208;-89
2022/01/22 13:10:10;;;;;;;0.30;0.10;;;1.80;99.90;;;;;;5073883;28;20195;-90
2022/01/22 13:12:42;;;;;;;0.30;0.10;;;1.70;99.90;;;;;;5086052;28;20198;-90
2022/01/22 13:15:11;;;;;;;0.30;0.20;;;1.50;99.90;;;;;;5087247;28;20313;-90
2022/01/22 13:17:39;;;;;;;0.30;0.10;;;1.30;99.90;;;;;;5076901;28;20196;-88
2022/01/22 13:20:10;;;;;;;0.30;0.10;;;1.30;99.90;;;;;;5091279;28;20640;-92
2022/01/22 13:22:40;;;;;;;0.30;0.10;;;1.20;99.90;;;;;;5082856;28;20196;-87
2022/01/22 13:25:08;;;;;;;0.30;0.10;;;1.20;99.90;;;;;;5073404;28;20200;-91
2022/01/22 13:27:36;;;;;;;0.30;0.10;;;1.20;99.90;;;;;;5076078;28;20199;-92
2022/01/22 13:30:06;;;;;;;0.30;0.10;;;1.20;99.90;;;;;;5073489;28;20564;-90
2022/01/22 13:32:50;;;;;;;0.30;0.10;;;1.20;99.90;;;;;;5082826;28;20209;-91
2022/01/22 13:35:28;;;;;;;0.30;0.10;;;1.20;99.90;;;;;;5076334;28;20195;-91
2022/01/22 13:38:22;;;;;;;0.30;0.10;;;1.30;99.90;;;;;;5078551;28;20188;-91
2022/01/22 13:49:18;;;;;;;0.30;0.10;;;1.40;99.90;;;;;;5086753;28;20222;-92
2022/01/22 13:51:50;;;;;;;0.30;0.10;;;1.50;99.90;;;;;;5080869;28;20598;-93
2022/01/22 13:54:18;;;;;;;0.30;0.10;;;1.50;99.90;;;;;;5080762;28;20279;-94
2022/01/22 13:56:51;;;;;;;0.30;0.10;;;1.50;99.90;;;;;;5092432;28;20244;-91
2022/01/22 13:59:21;;;;;;;0.30;0.10;;;1.40;99.90;;;;;;5090654;28;20195;-92
2022/01/22 14:02:04;;;;;;;0.30;0.10;;;1.40;99.90;;;;;;5085148;28;20240;-92
2022/01/22 14:04:49;;;;;;;0.30;0.10;;;1.40;99.90;;;;;;5081499;28;20207;-92
2022/01/22 14:07:21;;;;;;;0.30;0.10;;;1.40;99.90;;;;;;5099597;28;20215;-95
2022/01/22 14:09:57;;;;;;;0.30;0.10;;;1.50;99.90;;;;;;5109489;28;20195;-92
2022/01/22 14:12:31;;;;;;;0.98;0.40;;;1.50;99.90;;;;;;5106413;28;20227;-92
2022/01/22 14:15:09;;;;;;;0.45;0.45;;;1.40;99.90;;;;;;5098382;28;20208;-90
2022/01/22 14:17:53;;;;;;;0.30;0.10;;;1.40;99.90;;;;;;5101825;28;20208;-90
2022/01/22 14:20:26;;;;;;;0.30;0.10;;;1.40;99.90;;;;;;5086836;28;20203;-94
2022/01/22 14:23:05;;;;;;;0.30;0.10;;;1.30;99.90;;;;;;5088176;28;20195;-92
2022/01/22 14:25:34;;;;;;;0.30;0.10;;;1.30;99.90;;;;;;5093365;28;20251;-92
2022/01/22 14:28:04;;;;;;;0.30;0.10;;;1.20;99.90;;;;;;5087188;28;20689;-91